Time;durP1;ratioP1;P1;durP2;ratioP2;P2;SDS_P1;SDS_P2;PMS_P1;PMS_P2;Temp;Humidity;BMP_temperature;BMP_pressure;BME280_temperature;BME280_humidity;BME280_pressure;Samples;Min_cycle;Max_cycle;Signal;HPM_P1;HPM_P2
2022/08/04 00:02:09;;;;;;;;;;;22.80;99.90;;;;;;5076549;28;20424;-78
2022/08/04 00:05:04;;;;;;;;;;;22.80;99.90;;;;;;5076249;28;19912;-82
2022/08/04 00:07:39;;;;;;;;;;;22.70;99.90;;;;;;5066709;28;20333;-80
2022/08/04 00:10:05;;;;;;;;;;;22.60;99.90;;;;;;5076095;28;19915;-78
2022/08/04 00:12:32;;;;;;;;;;;22.70;99.90;;;;;;5076004;28;19908;-81
2022/08/04 00:14:59;;;;;;;;;;;22.60;99.90;;;;;;5058015;28;19931;-82
2022/08/04 00:17:27;;;;;;;;;;;22.40;99.90;;;;;;5076353;28;19916;-80
2022/08/04 00:19:55;;;;;;;;;;;22.40;99.90;;;;;;5075989;28;19909;-81
2022/08/04 00:22:24;;;;;;;;;;;22.50;99.90;;;;;;5075943;28;19908;-80
2022/08/04 00:24:50;;;;;;;;;;;22.70;99.90;;;;;;5075960;28;19999;-81
2022/08/04 00:27:16;;;;;;;;;;;22.70;99.90;;;;;;5057814;28;20003;-80
2022/08/04 00:29:42;;;;;;;;;;;22.70;99.90;;;;;;5075992;28;19915;-81
2022/08/04 00:32:08;;;;;;;;;;;22.50;99.90;;;;;;5075823;28;19909;-82
2022/08/04 00:34:34;;;;;;;;;;;22.50;99.90;;;;;;5075633;28;20266;-78
2022/08/04 00:36:59;;;;;;;;;;;22.30;99.90;;;;;;5075683;28;19915;-83
2022/08/04 00:39:25;;;;;;;;;;;22.20;99.90;;;;;;5075598;28;20001;-81
2022/08/04 00:42:00;;;;;;;;;;;22.30;99.90;;;;;;5075521;28;19909;-81
2022/08/04 00:44:48;;;;;;;;;;;22.40;99.90;;;;;;5075551;28;19947;-79
2022/08/04 00:47:29;;;;;;;;;;;22.30;99.90;;;;;;5055723;28;20284;-78
2022/08/04 00:49:58;;;;;;;;;;;22.40;99.90;;;;;;5075437;28;19955;-79
2022/08/04 00:52:36;;;;;;;;;;;22.40;99.90;;;;;;5075391;28;19999;-82
2022/08/04 00:55:02;;;;;;;;;;;22.60;99.90;;;;;;5075314;28;19946;-78
2022/08/04 00:57:27;;;;;;;;;;;22.40;99.90;;;;;;5075394;28;19952;-83
2022/08/04 01:00:02;;;;;;;;;;;22.30;99.90;;;;;;5075319;28;19916;-79
2022/08/04 01:02:34;;;;;;;;;;;22.20;99.90;;;;;;5057160;28;19908;-79
2022/08/04 01:05:18;;;;;;;;;;;22.20;99.90;;;;;;5075319;28;19962;-79
2022/08/04 01:07:43;;;;;;;;;;;22.20;99.90;;;;;;5075233;28;19912;-79
2022/08/04 01:10:15;;;;;;;;;;;22.30;99.90;;;;;;5075133;28;19915;-82
2022/08/04 01:12:40;;;;;;;;;;;22.50;99.90;;;;;;5075167;28;19909;-82
2022/08/04 01:15:14;;;;;;;;;;;22.30;99.90;;;;;;5056963;28;19958;-80
2022/08/04 01:17:54;;;;;;;;;;;22.30;99.90;;;;;;5075831;28;20381;-82
2022/08/04 01:20:20;;;;;;;;;;;22.20;99.90;;;;;;5075122;28;19908;-80
2022/08/04 01:22:46;;;;;;;;;;;22.10;99.90;;;;;;5074651;28;19908;-80
2022/08/04 01:25:30;;;;;;;;;;;22.10;99.90;;;;;;5074716;28;19962;-80
2022/08/04 01:28:31;;;;;;;;;;;22.10;99.90;;;;;;5074563;28;19912;-81
2022/08/04 01:31:01;;;;;;;;;;;21.90;99.90;;;;;;5032562;28;19912;-78
2022/08/04 01:33:28;;;;;;;;;;;22.10;99.90;;;;;;5067229;28;19908;-82
2022/08/04 01:35:54;;;;;;;;;;;22.10;99.90;;;;;;5074489;28;20327;-79
2022/08/04 01:38:33;;;;;;;;;;;22.00;99.90;;;;;;5074423;28;19909;-79
2022/08/04 01:41:03;;;;;;;;;;;22.10;99.90;;;;;;5074467;28;20430;-83
2022/08/04 01:43:29;;;;;;;;;;;22.20;99.90;;;;;;5074165;28;19920;-82
2022/08/04 01:45:58;;;;;;;;;;;22.10;99.90;;;;;;5074450;28;19978;-82
2022/08/04 01:48:27;;;;;;;;;;;21.90;99.90;;;;;;5073241;28;21307;-80
2022/08/04 01:50:54;;;;;;;;;;;21.90;99.90;;;;;;5073692;28;19908;-79
2022/08/04 01:53:20;;;;;;;;;;;22.00;99.90;;;;;;5074162;28;19908;-80
2022/08/04 01:55:47;;;;;;;;;;;22.10;99.90;;;;;;5074357;28;19908;-78
2022/08/04 01:58:13;;;;;;;;;;;22.00;99.90;;;;;;5074183;28;20019;-79
2022/08/04 02:00:43;;;;;;;;;;;22.00;99.90;;;;;;5073978;28;19995;-78
2022/08/04 02:03:12;;;;;;;;;;;22.00;99.90;;;;;;5056020;28;20277;-78
2022/08/04 02:05:40;;;;;;;;;;;22.20;99.90;;;;;;5073826;28;19931;-79
2022/08/04 02:08:06;;;;;;;;;;;22.20;99.90;;;;;;5073898;28;19931;-77
2022/08/04 02:10:41;;;;;;;;;;;22.30;99.90;;;;;;5074011;28;20284;-81
2022/08/04 02:13:06;;;;;;;;;;;22.20;99.90;;;;;;5073817;28;20006;-81
2022/08/04 02:15:46;;;;;;;;;;;22.20;99.90;;;;;;5073803;28;19999;-79
2022/08/04 02:18:18;;;;;;;;;;;22.00;99.90;;;;;;5074848;28;19920;-83
2022/08/04 02:20:45;;;;;;;;;;;21.90;99.90;;;;;;5073901;28;20053;-79
2022/08/04 02:23:14;;;;;;;;;;;21.60;99.90;;;;;;5073949;28;20290;-81
2022/08/04 02:25:47;;;;;;;;;;;21.50;99.90;;;;;;5073663;28;19908;-78
2022/08/04 02:28:22;;;;;;;;;;;21.50;99.90;;;;;;5055640;28;19909;-78
2022/08/04 02:31:00;;;;;;;;;;;21.50;99.90;;;;;;5073662;28;19932;-79
2022/08/04 02:33:31;;;;;;;;;;;21.40;99.90;;;;;;5073727;28;19995;-82
2022/08/04 02:35:58;;;;;;;;;;;21.60;99.90;;;;;;5074016;28;19916;-83
2022/08/04 02:38:38;;;;;;;;;;;21.70;99.90;;;;;;5073588;28;20380;-81
2022/08/04 02:41:04;;;;;;;;;;;21.90;99.90;;;;;;5073760;28;19908;-79
2022/08/04 02:43:31;;;;;;;;;;;21.70;99.90;;;;;;5073494;28;19920;-80
2022/08/04 02:45:58;;;;;;;;;;;21.50;99.90;;;;;;5073523;28;19964;-78
2022/08/04 02:48:24;;;;;;;;;;;21.30;99.90;;;;;;5073430;28;20003;-80
2022/08/04 02:50:51;;;;;;;;;;;21.10;99.90;;;;;;5073508;28;19909;-80
2022/08/04 02:53:20;;;;;;;;;;;21.00;99.90;;;;;;5055503;28;19940;-80
2022/08/04 02:55:46;;;;;;;;;;;21.10;99.90;;;;;;5073302;28;19912;-80
2022/08/04 02:58:14;;;;;;;;;;;20.90;99.90;;;;;;5073484;28;19943;-80
2022/08/04 03:00:39;;;;;;;;;;;20.90;99.90;;;;;;5055438;28;20404;-79
2022/08/04 03:03:15;;;;;;;;;;;20.90;99.90;;;;;;5073759;28;19955;-78
2022/08/04 03:05:49;;;;;;;;;;;20.80;99.90;;;;;;5077470;28;19915;-81
2022/08/04 03:08:17;;;;;;;;;;;20.80;99.90;;;;;;5077298;28;19939;-81
2022/08/04 03:10:46;;;;;;;;;;;20.60;99.90;;;;;;5077389;28;20327;-80
2022/08/04 03:13:30;;;;;;;;;;;20.70;99.90;;;;;;5077218;28;20400;-78
2022/08/04 03:16:07;;;;;;;;;;;20.70;99.90;;;;;;5077470;28;19999;-83
2022/08/04 03:18:42;;;;;;;;;;;20.60;99.90;;;;;;5077619;28;19915;-81
2022/08/04 03:21:26;;;;;;;;;;;20.60;99.90;;;;;;5077092;28;19995;-82
2022/08/04 03:24:04;;;;;;;;;;;20.60;99.90;;;;;;5077119;28;19909;-83
2022/08/04 03:26:44;;;;;;;;;;;20.50;99.90;;;;;;5077118;28;19912;-81
2022/08/04 03:29:16;;;;;;;;;;;20.50;99.90;;;;;;5058770;28;19909;-81
2022/08/04 03:32:00;;;;;;;;;;;20.50;99.90;;;;;;5076809;28;19914;-80
2022/08/04 03:34:34;;;;;;;;;;;20.50;99.90;;;;;;5076881;28;19966;-78
2022/08/04 03:37:15;;;;;;;;;;;20.50;99.90;;;;;;5076634;28;20362;-80
2022/08/04 03:39:43;;;;;;;;;;;20.40;99.90;;;;;;5076664;28;20280;-79
2022/08/04 03:42:17;;;;;;;;;;;20.30;99.90;;;;;;5076803;28;19909;-79
2022/08/04 03:45:01;;;;;;;;;;;20.30;99.90;;;;;;5076224;28;19928;-80
2022/08/04 03:47:45;;;;;;;;;;;20.20;99.90;;;;;;5076635;28;19917;-82
2022/08/04 03:50:20;;;;;;;;;;;20.10;99.90;;;;;;5076461;28;19908;-79
2022/08/04 03:53:09;;;;;;;;;;;20.00;99.90;;;;;;5076394;28;19912;-83
2022/08/04 03:55:42;;;;;;;;;;;20.10;99.90;;;;;;5076752;28;19981;-81
2022/08/04 03:58:08;;;;;;;;;;;20.00;99.90;;;;;;5076277;28;19947;-79
2022/08/04 04:00:45;;;;;;;;;;;20.00;99.90;;;;;;5076306;28;19947;-78
2022/08/04 04:03:30;;;;;;;;;;;19.90;99.90;;;;;;5076476;28;19913;-78
2022/08/04 04:06:22;;;;;;;;;;;19.90;99.90;;;;;;5076397;28;19916;-79
2022/08/04 04:08:57;;;;;;;;;;;19.90;99.90;;;;;;5076267;28;20377;-82
2022/08/04 04:11:48;;;;;;;;;;;19.70;99.90;;;;;;5076325;28;19908;-80
2022/08/04 04:14:20;;;;;;;;;;;19.60;99.90;;;;;;5059350;28;20428;-79
2022/08/04 04:16:52;;;;;;;;;;;19.80;99.90;;;;;;5076118;28;19919;-80
2022/08/04 04:19:36;;;;;;;;;;;19.80;99.90;;;;;;5076453;28;20381;-80
2022/08/04 04:22:20;;;;;;;;;;;19.80;99.90;;;;;;5076066;28;19908;-82
2022/08/04 04:24:46;;;;;;;;;;;19.70;99.90;;;;;;5075955;28;19920;-81
2022/08/04 04:27:14;;;;;;;;;;;19.80;99.90;;;;;;5075708;28;20372;-82
2022/08/04 04:29:58;;;;;;;;;;;19.80;99.90;;;;;;5057807;28;19958;-81
2022/08/04 04:32:39;;;;;;;;;;;19.80;99.90;;;;;;5075819;28;19916;-81
2022/08/04 04:35:13;;;;;;;;;;;19.70;99.90;;;;;;5075709;28;19915;-80
2022/08/04 04:37:45;;;;;;;;;;;19.70;99.90;;;;;;5075649;28;20384;-80
2022/08/04 04:40:25;;;;;;;;;;;19.70;99.90;;;;;;5075546;28;20334;-80
2022/08/04 04:43:10;;;;;;;;;;;19.70;99.90;;;;;;5075437;28;19915;-81
2022/08/04 04:46:02;;;;;;;;;;;19.50;99.90;;;;;;5075785;28;20007;-79
2022/08/04 04:48:42;;;;;;;;;;;19.50;99.90;;;;;;5075638;28;19916;-79
2022/08/04 04:51:26;;;;;;;;;;;19.50;99.90;;;;;;5075346;28;19909;-82
2022/08/04 04:54:03;;;;;;;;;;;19.60;99.90;;;;;;5075501;28;19925;-80
2022/08/04 04:56:35;;;;;;;;;;;19.60;99.90;;;;;;5075509;28;20308;-80
2022/08/04 04:59:01;;;;;;;;;;;19.50;99.90;;;;;;5075846;28;19932;-83
2022/08/04 05:01:27;;;;;;;;;;;19.60;99.90;;;;;;5075093;28;19908;-80
2022/08/04 05:04:01;;;;;;;;;;;19.70;99.90;;;;;;5075158;28;19915;-78
2022/08/04 05:06:42;;;;;;;;;;;19.60;99.90;;;;;;5075127;28;19962;-79
2022/08/04 05:09:26;;;;;;;;;;;19.60;99.90;;;;;;5074999;28;20372;-80
2022/08/04 05:12:10;;;;;;;;;;;19.50;99.90;;;;;;5074937;28;19908;-80
2022/08/04 05:14:40;;;;;;;;;;;19.70;99.90;;;;;;5074817;28;19995;-80
2022/08/04 05:17:24;;;;;;;;;;;19.70;99.90;;;;;;5074979;28;19920;-78
2022/08/04 05:20:05;;;;;;;;;;;19.70;99.90;;;;;;5075584;28;19909;-79
2022/08/04 05:22:42;;;;;;;;;;;19.80;99.90;;;;;;5074654;28;19958;-81
2022/08/04 05:25:12;;;;;;;;;;;19.90;99.90;;;;;;5074728;28;19931;-80
2022/08/04 05:27:48;;;;;;;;;;;19.90;99.90;;;;;;5074139;28;19966;-77
2022/08/04 05:30:14;;;;;;;;;;;19.90;99.90;;;;;;5074428;28;19909;-81
2022/08/04 05:32:43;;;;;;;;;;;20.00;99.90;;;;;;5074488;28;20245;-78
2022/08/04 05:35:11;;;;;;;;;;;20.20;99.90;;;;;;5074373;28;19915;-82
2022/08/04 05:37:37;;;;;;;;;;;20.20;99.90;;;;;;5074369;28;19908;-82
2022/08/04 05:40:05;;;;;;;;;;;20.20;99.90;;;;;;5074469;28;19908;-78
2022/08/04 05:42:33;;;;;;;;;;;20.20;99.90;;;;;;5074356;28;20007;-77
2022/08/04 05:44:59;;;;;;;;;;;20.20;99.90;;;;;;5073836;28;19970;-82
2022/08/04 05:47:24;;;;;;;;;;;20.20;99.90;;;;;;5074048;28;19973;-79
2022/08/04 05:49:51;;;;;;;;;;;20.40;99.90;;;;;;5074119;28;19974;-80
2022/08/04 05:52:17;;;;;;;;;;;20.50;99.90;;;;;;5074151;28;19908;-77
2022/08/04 05:54:43;;;;;;;;;;;20.60;99.90;;;;;;5074158;28;19908;-81
2022/08/04 05:57:10;;;;;;;;;;;20.60;99.90;;;;;;5074054;28;19931;-80
2022/08/04 05:59:37;;;;;;;;;;;20.70;99.90;;;;;;5073998;28;19919;-80
2022/08/04 06:02:03;;;;;;;;;;;20.80;99.90;;;;;;5074039;28;19962;-82
2022/08/04 06:04:33;;;;;;;;;;;21.00;99.90;;;;;;5074010;28;19913;-79
2022/08/04 06:06:59;;;;;;;;;;;21.00;99.90;;;;;;5073844;28;19955;-79
2022/08/04 06:09:25;;;;;;;;;;;21.10;99.90;;;;;;5073914;28;19963;-82
2022/08/04 06:11:51;;;;;;;;;;;21.40;99.90;;;;;;5073992;28;19909;-81
2022/08/04 06:14:17;;;;;;;;;;;21.50;99.90;;;;;;5073822;28;19908;-82
2022/08/04 06:16:43;;;;;;;;;;;21.80;99.90;;;;;;5073911;28;19909;-79
2022/08/04 06:19:12;;;;;;;;;;;21.90;99.90;;;;;;5074324;28;19909;-80
2022/08/04 06:21:40;;;;;;;;;;;21.90;99.90;;;;;;5073765;28;19915;-79
2022/08/04 06:24:09;;;;;;;;;;;21.90;99.90;;;;;;5073778;28;19913;-82
2022/08/04 06:26:35;;;;;;;;;;;21.70;99.90;;;;;;5073617;28;19913;-78
2022/08/04 06:29:02;;;;;;;;;;;21.60;99.90;;;;;;5073434;28;19916;-77
2022/08/04 06:31:45;;;;;;;;;;;21.60;99.90;;;;;;5073637;28;20376;-83
2022/08/04 06:34:12;;;;;;;;;;;21.80;99.90;;;;;;5073864;28;19908;-81
2022/08/04 06:36:39;;;;;;;;;;;21.70;99.90;;;;;;5073733;28;19908;-81
2022/08/04 06:39:06;;;;;;;;;;;21.70;99.90;;;;;;5073541;28;19948;-83
2022/08/04 06:41:32;;;;;;;;;;;21.80;99.90;;;;;;5073585;28;20368;-77
2022/08/04 06:43:59;;;;;;;;;;;21.90;99.90;;;;;;5073653;28;19963;-78
2022/08/04 06:46:25;;;;;;;;;;;22.10;99.90;;;;;;5073451;28;20380;-81
2022/08/04 06:48:51;;;;;;;;;;;22.30;99.90;;;;;;5073674;28;20372;-78
2022/08/04 06:51:20;;;;;;;;;;;22.60;99.90;;;;;;5073542;28;19908;-79
2022/08/04 06:53:45;;;;;;;;;;;22.90;99.90;;;;;;5073433;28;19920;-78
2022/08/04 06:56:12;;;;;;;;;;;23.30;99.90;;;;;;5073443;28;19913;-81
2022/08/04 06:58:39;;;;;;;;;;;23.40;99.90;;;;;;5073165;28;19920;-82
2022/08/04 07:01:05;;;;;;;;;;;23.60;99.90;;;;;;5073367;28;19912;-80
2022/08/04 07:03:31;;;;;;;;;;;23.70;99.90;;;;;;5073266;28;19908;-81
2022/08/04 07:05:56;;;;;;;;;;;23.80;99.90;;;;;;5072844;28;19912;-81
2022/08/04 07:08:22;;;;;;;;;;;23.80;99.90;;;;;;5073358;28;19931;-82
2022/08/04 07:10:48;;;;;;;;;;;24.00;99.90;;;;;;5073271;28;20013;-80
2022/08/04 07:13:14;;;;;;;;;;;24.20;99.90;;;;;;5073273;28;19908;-79
2022/08/04 07:15:40;;;;;;;;;;;24.20;99.90;;;;;;5073222;28;19947;-83
2022/08/04 07:18:06;;;;;;;;;;;24.70;99.90;;;;;;5073228;28;19999;-78
2022/08/04 07:20:32;;;;;;;;;;;25.10;99.90;;;;;;5073844;28;19966;-81
2022/08/04 07:22:59;;;;;;;;;;;25.10;99.90;;;;;;5073165;28;20338;-80
2022/08/04 07:25:25;;;;;;;;;;;25.00;99.90;;;;;;5073677;28;19916;-82
2022/08/04 07:27:50;;;;;;;;;;;25.30;99.90;;;;;;5073092;28;19912;-82
2022/08/04 07:30:16;;;;;;;;;;;25.50;99.90;;;;;;5073073;28;19908;-80
2022/08/04 07:32:43;;;;;;;;;;;25.60;98.50;;;;;;5073006;28;19954;-82
2022/08/04 07:35:10;;;;;;;;;;;25.50;98.20;;;;;;5073039;28;19943;-80
2022/08/04 07:37:36;;;;;;;;;;;25.50;97.70;;;;;;5072988;28;19919;-81
2022/08/04 07:40:02;;;;;;;;;;;25.60;96.50;;;;;;5072956;28;20301;-83
2022/08/04 07:42:27;;;;;;;;;;;25.50;95.90;;;;;;5054957;28;19912;-79
2022/08/04 07:44:53;;;;;;;;;;;25.30;95.90;;;;;;5072225;28;19921;-79
2022/08/04 07:47:19;;;;;;;;;;;25.10;96.20;;;;;;5072893;28;19913;-78
2022/08/04 07:49:44;;;;;;;;;;;25.10;96.60;;;;;;5056209;28;20365;-79
2022/08/04 07:52:10;;;;;;;;;;;25.30;94.60;;;;;;5076755;28;19909;-83
2022/08/04 07:54:37;;;;;;;;;;;25.70;93.80;;;;;;5076423;28;20011;-81
2022/08/04 07:57:02;;;;;;;;;;;25.90;92.30;;;;;;5076358;28;19931;-80
2022/08/04 07:59:28;;;;;;;;;;;26.00;92.00;;;;;;5076611;28;20364;-78
2022/08/04 08:01:54;;;;;;;;;;;25.80;91.70;;;;;;5076257;28;20266;-81
2022/08/04 08:04:20;;;;;;;;;;;26.00;90.90;;;;;;5076349;28;19916;-78
2022/08/04 08:06:45;;;;;;;;;;;25.90;89.80;;;;;;5058215;28;20357;-76
2022/08/04 08:09:13;;;;;;;;;;;25.90;90.00;;;;;;5076240;28;20003;-80
2022/08/04 08:11:39;;;;;;;;;;;25.80;89.30;;;;;;5076137;28;19915;-79
2022/08/04 08:14:04;;;;;;;;;;;26.20;88.50;;;;;;5076116;28;19909;-79
2022/08/04 08:16:32;;;;;;;;;;;26.30;87.20;;;;;;5076062;28;20292;-80
2022/08/04 08:18:59;;;;;;;;;;;26.50;87.30;;;;;;5076546;28;19915;-79
2022/08/04 08:21:25;;;;;;;;;;;26.90;85.70;;;;;;5075971;28;19909;-79
2022/08/04 08:23:50;;;;;;;;;;;27.30;83.30;;;;;;5076072;28;20015;-81
2022/08/04 08:26:16;;;;;;;;;;;27.70;81.90;;;;;;5075780;28;19912;-80
2022/08/04 08:28:42;;;;;;;;;;;28.10;79.90;;;;;;5075825;28;19908;-81
2022/08/04 08:31:07;;;;;;;;;;;28.20;78.50;;;;;;5076127;28;19950;-78
2022/08/04 08:33:33;;;;;;;;;;;28.40;77.80;;;;;;5057668;28;19908;-82
2022/08/04 08:35:58;;;;;;;;;;;29.30;77.00;;;;;;5076210;28;19962;-82
2022/08/04 08:38:37;;;;;;;;;;;29.80;74.00;;;;;;5075676;28;19908;-81
2022/08/04 08:41:06;;;;;;;;;;;29.80;70.90;;;;;;5057607;28;19912;-80
2022/08/04 08:43:37;;;;;;;;;;;30.10;71.20;;;;;;5075263;28;20439;-81
2022/08/04 08:46:18;;;;;;;;;;;30.20;68.90;;;;;;5075575;28;20335;-79
2022/08/04 08:48:47;;;;;;;;;;;30.70;68.90;;;;;;5075260;28;19931;-78
2022/08/04 08:51:30;;;;;;;;;;;31.00;67.70;;;;;;5075461;28;19922;-79
2022/08/04 08:54:15;;;;;;;;;;;31.40;68.00;;;;;;5075668;28;19919;-79
2022/08/04 08:56:40;;;;;;;;;;;31.40;66.30;;;;;;5075265;28;19912;-82
2022/08/04 08:59:15;;;;;;;;;;;31.10;66.30;;;;;;5075184;28;19915;-81
2022/08/04 09:01:59;;;;;;;;;;;31.10;66.40;;;;;;5073967;28;20285;-83
2022/08/04 09:04:37;;;;;;;;;;;31.30;66.10;;;;;;5075167;28;19947;-82
2022/08/04 09:07:12;;;;;;;;;;;32.20;64.90;;;;;;5074959;28;19918;-79
2022/08/04 09:09:41;;;;;;;;;;;32.00;63.40;;;;;;5075485;28;20371;-79
2022/08/04 09:12:21;;;;;;;;;;;32.50;63.20;;;;;;5075087;28;19912;-79
2022/08/04 09:14:58;;;;;;;;;;;33.00;61.80;;;;;;5074864;28;20007;-77
2022/08/04 09:17:27;;;;;;;;;;;33.50;61.10;;;;;;5075349;28;19991;-79
2022/08/04 09:20:04;;;;;;;;;;;34.10;59.20;;;;;;5075208;28;20453;-80
2022/08/04 09:22:31;;;;;;;;;;;34.40;57.70;;;;;;5074916;28;19963;-80
2022/08/04 09:25:06;;;;;;;;;;;34.00;56.40;;;;;;5074610;28;19908;-77
2022/08/04 09:27:50;;;;;;;;;;;34.40;56.10;;;;;;5074509;28;19995;-80
2022/08/04 09:30:20;;;;;;;;;;;34.90;55.40;;;;;;5074487;28;19919;-78
2022/08/04 09:33:04;;;;;;;;;;;35.20;54.70;;;;;;5074456;28;19912;-78
2022/08/04 09:35:36;;;;;;;;;;;35.30;53.60;;;;;;5074397;28;19908;-78
2022/08/04 09:38:04;;;;;;;;;;;36.40;52.80;;;;;;5074565;28;19916;-80
2022/08/04 09:40:33;;;;;;;;;;;36.10;51.00;;;;;;5050136;28;19920;-81
2022/08/04 09:43:18;;;;;;;;;;;36.10;51.80;;;;;;5074151;28;19924;-81
2022/08/04 09:45:53;;;;;;;;;;;34.80;52.30;;;;;;5055775;28;19912;-80
2022/08/04 09:48:27;;;;;;;;;;;33.80;53.90;;;;;;5073229;28;19993;-81
2022/08/04 09:50:57;;;;;;;;;;;34.30;54.10;;;;;;5075983;28;20057;-80
2022/08/04 09:53:29;;;;;;;;;;;35.80;52.00;;;;;;5076583;28;19912;-79
2022/08/04 09:56:04;;;;;;;;;;;37.20;51.00;;;;;;5094892;28;19915;-78
2022/08/04 09:58:33;;;;;;;;;;;38.50;50.00;;;;;;5092535;28;20393;-82
2022/08/04 10:01:05;;;;;;;;;;;39.60;49.20;;;;;;5073854;28;19912;-79
2022/08/04 10:03:32;;;;;;;;;;;40.00;48.30;;;;;;5073982;28;19908;-78
2022/08/04 10:06:13;;;;;;;;;;;41.30;48.00;;;;;;5074195;28;19916;-77
2022/08/04 10:08:58;;;;;;;;;;;44.60;45.50;;;;;;5073902;28;20383;-80
2022/08/04 10:11:42;;;;;;;;;;;43.40;43.50;;;;;;5073836;28;19909;-80
2022/08/04 10:14:10;;;;;;;;;;;40.10;45.90;;;;;;5074004;28;19915;-81
2022/08/04 10:16:57;;;;;;;;;;;41.20;46.80;;;;;;5074125;28;19922;-83
2022/08/04 10:19:25;;;;;;;;;;;41.50;44.70;;;;;;5074290;28;19990;-80
2022/08/04 10:22:01;;;;;;;;;;;38.60;47.20;;;;;;5073925;28;19915;-81
2022/08/04 10:24:31;;;;;;;;;;;36.80;48.70;;;;;;5074133;28;19912;-79
2022/08/04 10:27:00;;;;;;;;;;;36.80;49.80;;;;;;5073812;28;20022;-81
2022/08/04 10:29:59;;;;;;;;;;;37.00;49.10;;;;;;5073549;28;19912;-80
2022/08/04 10:32:27;;;;;;;;;;;36.10;49.90;;;;;;5033865;28;20304;-81
2022/08/04 10:35:08;;;;;;;;;;;35.00;51.30;;;;;;5073805;28;20054;-78
2022/08/04 10:37:53;;;;;;;;;;;33.90;52.50;;;;;;5073727;28;19908;-78
2022/08/04 10:40:36;;;;;;;;;;;33.40;53.60;;;;;;5088642;28;19912;-78
2022/08/04 10:43:04;;;;;;;;;;;33.30;53.60;;;;;;5084608;28;19944;-79
2022/08/04 10:45:43;;;;;;;;;;;33.50;53.40;;;;;;5093945;28;19959;-81
2022/08/04 10:48:18;;;;;;;;;;;33.60;53.00;;;;;;5075686;28;19934;-80
2022/08/04 10:50:49;;;;;;;;;;;33.00;53.00;;;;;;5075182;28;20342;-80
2022/08/04 10:53:19;;;;;;;;;;;32.80;53.70;;;;;;5055868;28;19909;-79
2022/08/04 10:55:51;;;;;;;;;;;32.90;53.40;;;;;;5074074;28;19908;-77
2022/08/04 10:58:23;;;;;;;;;;;33.00;52.90;;;;;;5055306;28;19961;-84
2022/08/04 11:00:55;;;;;;;;;;;33.60;52.90;;;;;;5073568;28;19998;-81
2022/08/04 11:03:21;;;;;;;;;;;35.40;51.60;;;;;;5073295;28;20257;-82
2022/08/04 11:05:54;;;;;;;;;;;36.10;50.50;;;;;;5073408;28;19930;-79
2022/08/04 11:08:35;;;;;;;;;;;36.00;50.10;;;;;;5069141;28;19912;-80
2022/08/04 11:11:08;;;;;;;;;;;35.80;50.10;;;;;;5064086;28;19917;-79
2022/08/04 11:13:41;;;;;;;;;;;35.30;51.10;;;;;;5071298;28;20003;-81
2022/08/04 11:16:11;;;;;;;;;;;34.80;51.00;;;;;;5072703;28;20452;-81
2022/08/04 11:18:46;;;;;;;;;;;34.70;51.50;;;;;;5070004;28;20300;-78
2022/08/04 11:21:20;;;;;;;;;;;36.40;52.10;;;;;;5073104;28;19952;-84
2022/08/04 11:24:06;;;;;;;;;;;40.80;47.80;;;;;;5072824;28;19919;-81
2022/08/04 11:26:37;;;;;;;;;;;42.60;45.10;;;;;;5068591;28;19920;-80
2022/08/04 11:29:03;;;;;;;;;;;41.00;44.70;;;;;;5077442;28;19954;-82
2022/08/04 11:31:30;;;;;;;;;;;42.60;44.70;;;;;;5076887;28;19999;-80
2022/08/04 11:34:04;;;;;;;;;;;42.60;43.90;;;;;;5076741;28;19912;-82
2022/08/04 11:36:35;;;;;;;;;;;40.90;43.90;;;;;;5076851;28;19909;-81
2022/08/04 11:39:10;;;;;;;;;;;39.50;45.70;;;;;;5076737;28;19991;-83
2022/08/04 11:41:44;;;;;;;;;;;42.40;44.40;;;;;;5075688;28;20309;-82
2022/08/04 11:44:28;;;;;;;;;;;42.20;43.00;;;;;;5086799;28;19927;-78
2022/08/04 11:46:57;;;;;;;;;;;43.60;43.10;;;;;;5094989;28;19919;-80
2022/08/04 11:49:27;;;;;;;;;;;41.80;41.90;;;;;;5094799;28;19930;-83
2022/08/04 11:51:55;;;;;;;;;;;41.70;43.80;;;;;;5095016;28;19915;-80
2022/08/04 11:54:20;;;;;;;;;;;41.20;42.30;;;;;;5095258;28;19908;-78
2022/08/04 11:56:46;;;;;;;;;;;38.70;44.10;;;;;;5094884;28;19918;-78
2022/08/04 11:59:12;;;;;;;;;;;41.00;44.60;;;;;;5095395;28;19916;-84
2022/08/04 12:01:40;;;;;;;;;;;42.30;43.30;;;;;;5096606;28;19908;-81
2022/08/04 12:04:15;;;;;;;;;;;43.10;42.80;;;;;;5096444;28;20007;-79
2022/08/04 12:06:48;;;;;;;;;;;45.20;41.90;;;;;;5096511;28;20011;-80
2022/08/04 12:09:26;;;;;;;;;;;46.30;40.70;;;;;;5096355;28;19987;-81
2022/08/04 12:12:10;;;;;;;;;;;46.30;40.40;;;;;;5096436;28;20049;-86
2022/08/04 12:14:38;;;;;;;;;;;47.40;39.70;;;;;;5096414;28;19916;-79
2022/08/04 12:17:05;;;;;;;;;;;47.50;39.20;;;;;;5096265;28;19915;-84
2022/08/04 12:19:33;;;;;;;;;;;45.80;39.10;;;;;;5096741;28;19908;-78
2022/08/04 12:22:02;;;;;;;;;;;42.90;41.50;;;;;;5096340;28;19915;-82
2022/08/04 12:24:33;;;;;;;;;;;45.20;40.70;;;;;;5096151;28;19908;-81
2022/08/04 12:27:03;;;;;;;;;;;47.60;38.70;;;;;;5095924;28;19912;-80
2022/08/04 12:29:32;;;;;;;;;;;48.60;38.20;;;;;;5096479;28;19908;-80
2022/08/04 12:32:03;;;;;;;;;;;49.40;38.50;;;;;;5096032;28;20011;-79
2022/08/04 12:34:37;;;;;;;;;;;50.90;37.20;;;;;;5096074;28;19914;-83
2022/08/04 12:37:06;;;;;;;;;;;50.00;36.80;;;;;;5095601;28;19908;-80
2022/08/04 12:39:32;;;;;;;;;;;48.90;37.30;;;;;;5095868;28;20007;-81
2022/08/04 12:41:57;;;;;;;;;;;49.20;37.10;;;;;;5096042;28;20357;-79
2022/08/04 12:44:24;;;;;;;;;;;49.20;36.60;;;;;;5095598;28;20379;-79
2022/08/04 12:46:50;;;;;;;;;;;49.10;36.80;;;;;;5095798;28;20296;-83
2022/08/04 12:49:15;;;;;;;;;;;49.20;37.00;;;;;;5095935;28;20284;-82
2022/08/04 12:51:42;;;;;;;;;;;48.50;37.10;;;;;;5095616;28;19991;-79
2022/08/04 12:54:09;;;;;;;;;;;48.80;37.50;;;;;;5095850;28;19959;-80
2022/08/04 12:56:35;;;;;;;;;;;47.80;36.80;;;;;;5095627;28;19912;-79
2022/08/04 12:59:03;;;;;;;;;;;45.40;39.00;;;;;;5095634;28;19908;-81
2022/08/04 13:01:29;;;;;;;;;;;45.80;38.70;;;;;;5095328;28;20462;-82
2022/08/04 13:04:00;;;;;;;;;;;46.60;38.00;;;;;;5077193;28;20052;-82
2022/08/04 13:06:29;;;;;;;;;;;47.80;37.70;;;;;;5095348;28;19975;-80
2022/08/04 13:08:57;;;;;;;;;;;47.00;37.30;;;;;;5095198;28;19908;-84
2022/08/04 13:11:23;;;;;;;;;;;44.90;38.60;;;;;;5095430;28;20284;-83
2022/08/04 13:13:53;;;;;;;;;;;41.90;40.40;;;;;;5095269;28;20057;-84
2022/08/04 13:16:27;;;;;;;;;;;40.60;41.90;;;;;;5095154;28;19912;-80
2022/08/04 13:18:53;;;;;;;;;;;39.60;42.40;;;;;;5095132;28;19915;-81
2022/08/04 13:21:20;;;;;;;;;;;41.70;41.70;;;;;;5095565;28;19908;-84
2022/08/04 13:23:46;;;;;;;;;;;44.40;39.70;;;;;;5095172;28;19912;-85
2022/08/04 13:26:13;;;;;;;;;;;45.60;38.40;;;;;;5095109;28;19919;-84
2022/08/04 13:28:39;;;;;;;;;;;46.00;38.60;;;;;;5094844;28;20291;-81
2022/08/04 13:31:06;;;;;;;;;;;43.30;39.30;;;;;;5094864;28;19954;-83
2022/08/04 13:33:37;;;;;;;;;;;42.00;40.00;;;;;;5094893;28;19914;-81
2022/08/04 13:36:04;;;;;;;;;;;43.30;39.30;;;;;;5094818;28;20480;-82
2022/08/04 13:38:30;;;;;;;;;;;45.00;38.20;;;;;;5094690;28;19969;-84
2022/08/04 13:40:58;;;;;;;;;;;45.90;37.80;;;;;;5094652;28;19916;-86
2022/08/04 13:43:29;;;;;;;;;;;44.90;37.50;;;;;;5094455;28;20392;-84
2022/08/04 13:46:02;;;;;;;;;;;44.30;38.60;;;;;;5094663;28;20378;-81
2022/08/04 13:48:34;;;;;;;;;;;41.90;39.70;;;;;;5094211;28;20386;-83
2022/08/04 13:51:03;;;;;;;;;;;40.60;41.10;;;;;;5094694;28;19909;-80
2022/08/04 13:53:33;;;;;;;;;;;40.60;41.20;;;;;;5094419;28;19969;-83
2022/08/04 13:56:00;;;;;;;;;;;40.80;41.00;;;;;;5094518;28;20012;-83
2022/08/04 13:58:28;;;;;;;;;;;40.40;41.40;;;;;;5094859;28;19915;-80
2022/08/04 14:00:57;;;;;;;;;;;40.30;41.30;;;;;;5094536;28;19908;-81
2022/08/04 14:03:27;;;;;;;;;;;40.10;41.10;;;;;;5094432;28;19909;-83
2022/08/04 14:06:10;;;;;;;;;;;38.20;42.30;;;;;;5094414;28;19915;-83
2022/08/04 14:08:44;;;;;;;;;;;37.90;43.30;;;;;;5094173;28;20073;-83
2022/08/04 14:11:09;;;;;;;;;;;39.10;42.40;;;;;;5094168;28;19908;-83
2022/08/04 14:13:35;;;;;;;;;;;38.60;42.70;;;;;;5094155;28;19999;-82
2022/08/04 14:16:01;;;;;;;;;;;39.20;42.40;;;;;;5094012;28;20452;-83
2022/08/04 14:18:33;;;;;;;;;;;39.30;42.00;;;;;;5094057;28;19919;-84
2022/08/04 14:21:12;;;;;;;;;;;37.90;42.70;;;;;;5094608;28;19957;-85
2022/08/04 14:23:41;;;;;;;;;;;36.80;43.80;;;;;;5093976;28;19908;-82
2022/08/04 14:26:13;;;;;;;;;;;36.80;43.80;;;;;;5094099;28;19912;-81
2022/08/04 14:28:39;;;;;;;;;;;36.80;43.80;;;;;;5093949;28;19931;-82
2022/08/04 14:31:12;;;;;;;;;;;37.40;43.30;;;;;;5093888;28;20385;-80
2022/08/04 14:33:41;;;;;;;;;;;37.60;42.50;;;;;;5093867;28;19935;-85
2022/08/04 14:36:07;;;;;;;;;;;38.20;42.30;;;;;;5094079;28;19916;-80
2022/08/04 14:38:50;;;;;;;;;;;38.10;42.10;;;;;;5093757;28;19908;-83
2022/08/04 14:41:17;;;;;;;;;;;38.20;42.30;;;;;;5093745;28;19908;-82